RORT(METAR)
04/26 16:00
RORT 260700Z 05009KT 9999 FEW013 SCT041 28/24 Q1010 RMK A2985=
戻る
トップページへ戻る
IMOC Co,.Ltd.